Time;durP1;ratioP1;P1;durP2;ratioP2;P2;SDS_P1;SDS_P2;PMS_P1;PMS_P2;Temp;Humidity;BMP_temperature;BMP_pressure;BME280_temperature;BME280_humidity;BME280_pressure;Samples;Min_cycle;Max_cycle;Signal;HPM_P1;HPM_P2
2021/12/20 00:00:00;;;;;;;26.88;14.35;;;2.80;99.90;;;;;;5093421;28;20052;-81
2021/12/20 00:02:26;;;;;;;24.10;12.68;;;2.90;99.90;;;;;;5093263;28;20024;-80
2021/12/20 00:04:52;;;;;;;22.60;13.10;;;2.90;99.90;;;;;;5075166;28;20072;-81
2021/12/20 00:07:19;;;;;;;28.13;14.93;;;3.00;99.90;;;;;;5093258;28;20020;-81
2021/12/20 00:09:46;;;;;;;22.65;12.73;;;2.90;99.90;;;;;;5075102;28;20048;-81
2021/12/20 00:12:11;;;;;;;28.27;14.40;;;2.90;99.90;;;;;;5093184;28;20107;-81
2021/12/20 00:14:37;;;;;;;23.42;12.60;;;3.00;99.90;;;;;;5075072;28;20567;-81
2021/12/20 00:17:03;;;;;;;27.40;13.48;;;3.00;99.90;;;;;;5075036;28;20027;-81
2021/12/20 00:19:29;;;;;;;27.50;14.07;;;3.00;99.90;;;;;;5075009;28;20035;-80
2021/12/20 00:21:55;;;;;;;25.55;13.32;;;3.00;99.90;;;;;;5093336;28;20034;-81
2021/12/20 00:24:20;;;;;;;22.05;12.27;;;3.00;99.90;;;;;;5093055;28;20372;-81
2021/12/20 00:26:47;;;;;;;24.67;12.95;;;3.10;99.90;;;;;;5074909;28;20022;-81
2021/12/20 00:29:13;;;;;;;23.95;12.88;;;3.10;99.90;;;;;;5074891;28;20020;-81
2021/12/20 00:31:38;;;;;;;25.27;13.20;;;3.20;99.90;;;;;;5092996;28;20054;-81
2021/12/20 00:34:04;;;;;;;27.85;14.55;;;3.20;99.90;;;;;;5074916;28;20020;-80
2021/12/20 00:36:30;;;;;;;27.48;14.82;;;3.20;99.90;;;;;;5092910;28;20085;-81
2021/12/20 00:41:40;;;;;;;;;;;3.00;99.90;;;;;;5093683;28;20046;-81
2021/12/20 00:44:06;;;;;;;22.73;12.63;;;3.00;99.90;;;;;;5093169;28;19904;-81
2021/12/20 00:46:32;;;;;;;24.65;12.63;;;2.90;99.90;;;;;;5074768;28;20016;-80
2021/12/20 00:48:58;;;;;;;27.40;13.15;;;3.00;99.90;;;;;;5074583;28;20024;-81
2021/12/20 00:51:24;;;;;;;27.52;14.18;;;3.10;99.90;;;;;;5093114;28;20043;-81
2021/12/20 00:53:49;;;;;;;25.70;14.02;;;3.10;99.90;;;;;;5074731;28;20506;-81
2021/12/20 00:56:15;;;;;;;24.23;13.27;;;3.10;99.90;;;;;;5074612;28;20484;-81
2021/12/20 00:58:41;;;;;;;21.95;12.43;;;3.10;99.90;;;;;;5074619;28;20039;-81
2021/12/20 01:01:06;;;;;;;25.70;12.23;;;3.10;99.90;;;;;;5074761;28;20035;-81
2021/12/20 01:03:33;;;;;;;25.48;12.95;;;3.10;99.90;;;;;;5074575;28;20020;-80
2021/12/20 01:05:59;;;;;;;25.65;13.10;;;3.10;99.90;;;;;;5074519;28;20031;-81
2021/12/20 01:08:28;;;;;;;23.23;12.65;;;3.10;99.90;;;;;;5074499;28;20028;-81
2021/12/20 01:10:55;;;;;;;22.02;12.15;;;3.10;99.90;;;;;;5074536;28;20508;-81
2021/12/20 01:13:24;;;;;;;21.85;12.02;;;3.20;99.90;;;;;;5074432;28;20071;-81
2021/12/20 01:15:53;;;;;;;23.65;12.10;;;3.20;99.90;;;;;;5074484;28;20024;-80
2021/12/20 01:18:21;;;;;;;20.20;12.20;;;3.20;99.90;;;;;;5074421;28;20066;-81
2021/12/20 01:20:47;;;;;;;23.10;13.13;;;3.10;99.90;;;;;;5092507;28;20020;-81
2021/12/20 01:23:13;;;;;;;24.35;13.32;;;3.10;99.90;;;;;;5092549;28;20035;-80
2021/12/20 01:25:41;;;;;;;20.02;12.02;;;2.90;99.90;;;;;;5074385;28;20016;-81
2021/12/20 01:28:07;;;;;;;22.02;11.93;;;2.90;99.90;;;;;;5075394;28;20438;-80
2021/12/20 01:30:34;;;;;;;24.60;13.68;;;3.00;99.90;;;;;;5078014;28;20024;-80
2021/12/20 01:33:00;;;;;;;24.05;12.88;;;3.00;99.90;;;;;;5077900;28;20024;-81
2021/12/20 01:35:27;;;;;;;22.55;13.57;;;3.10;99.90;;;;;;5096288;28;20027;-81
2021/12/20 01:37:55;;;;;;;20.58;12.43;;;3.20;99.90;;;;;;5077862;28;20020;-80
2021/12/20 01:40:22;;;;;;;20.90;12.68;;;3.10;99.90;;;;;;5095837;28;20058;-81
2021/12/20 01:42:52;;;;;;;24.25;13.65;;;3.20;99.90;;;;;;5095877;28;20504;-81
2021/12/20 01:45:23;;;;;;;24.88;14.38;;;3.10;99.90;;;;;;5077742;28;20028;-80
2021/12/20 01:47:53;;;;;;;23.23;13.20;;;3.10;99.90;;;;;;5077623;28;20466;-80
2021/12/20 01:50:36;;;;;;;24.83;13.77;;;3.00;99.90;;;;;;5077707;28;20020;-81
2021/12/20 01:53:02;;;;;;;21.07;12.87;;;3.00;99.90;;;;;;5077612;28;20115;-81
2021/12/20 01:55:28;;;;;;;23.70;12.75;;;2.90;99.90;;;;;;5095655;28;20258;-80
2021/12/20 01:57:54;;;;;;;22.23;12.75;;;3.00;99.90;;;;;;5077479;28;20438;-81
2021/12/20 02:00:26;;;;;;;21.35;12.77;;;3.10;99.90;;;;;;5077411;28;20067;-80
2021/12/20 02:03:03;;;;;;;22.55;13.68;;;3.20;99.90;;;;;;5095475;28;20028;-80
2021/12/20 02:05:50;;;;;;;21.92;13.32;;;3.20;99.90;;;;;;5077349;28;20078;-80
2021/12/20 02:08:21;;;;;;;21.58;12.25;;;3.20;99.90;;;;;;5077371;28;20021;-80
2021/12/20 02:10:49;;;;;;;20.85;12.75;;;3.20;99.90;;;;;;5077365;28;20492;-80
2021/12/20 02:13:16;;;;;;;21.23;13.10;;;3.20;99.90;;;;;;5077221;28;20048;-80
2021/12/20 02:15:43;;;;;;;21.08;13.05;;;3.20;99.90;;;;;;5077137;28;20498;-80
2021/12/20 02:18:09;;;;;;;23.52;14.38;;;3.20;99.90;;;;;;5095264;28;20490;-80
2021/12/20 02:20:36;;;;;;;22.08;13.00;;;3.20;99.90;;;;;;5076968;28;20017;-80
2021/12/20 02:23:03;;;;;;;21.65;12.70;;;3.20;99.90;;;;;;5077060;28;20043;-80
2021/12/20 02:25:30;;;;;;;22.63;13.32;;;3.20;99.90;;;;;;5095111;28;20016;-80
2021/12/20 02:27:58;;;;;;;24.15;14.00;;;3.20;99.90;;;;;;5076918;28;20031;-81
2021/12/20 02:38:32;;;;;;;22.95;12.90;;;3.20;99.90;;;;;;5095149;28;20034;-81
2021/12/20 02:41:02;;;;;;;27.85;15.90;;;3.10;99.90;;;;;;5093515;28;20040;-80
2021/12/20 02:43:29;;;;;;;19.15;11.73;;;3.00;99.90;;;;;;5076968;28;20024;-80
2021/12/20 02:46:00;;;;;;;25.25;14.48;;;2.90;99.90;;;;;;5076541;28;20047;-81
2021/12/20 02:48:26;;;;;;;26.35;14.35;;;2.90;99.90;;;;;;5076454;28;20027;-80
2021/12/20 02:50:55;;;;;;;22.48;13.07;;;2.80;99.90;;;;;;5076472;28;20024;-80
2021/12/20 02:53:21;;;;;;;22.42;11.93;;;2.90;99.90;;;;;;5094592;28;20024;-80
2021/12/20 02:55:47;;;;;;;20.83;12.55;;;2.80;99.90;;;;;;5076340;28;20111;-80
2021/12/20 02:58:12;;;;;;;19.83;13.57;;;3.00;99.90;;;;;;5076581;28;20032;-80
2021/12/20 03:00:38;;;;;;;20.83;12.90;;;3.10;99.90;;;;;;5076073;28;20115;-80
2021/12/20 03:03:04;;;;;;;24.15;13.02;;;3.20;99.90;;;;;;5076230;28;20020;-80
2021/12/20 03:05:30;;;;;;;18.25;11.55;;;3.10;99.90;;;;;;5076157;28;20027;-80
2021/12/20 03:07:57;;;;;;;23.10;12.98;;;3.10;99.90;;;;;;5076132;28;20035;-80
2021/12/20 03:10:24;;;;;;;22.90;12.77;;;3.10;99.90;;;;;;5076098;28;20430;-81
2021/12/20 03:12:50;;;;;;;22.50;12.77;;;3.00;99.90;;;;;;5076069;28;20479;-80
2021/12/20 03:15:23;;;;;;;27.73;13.90;;;3.10;99.90;;;;;;5075939;28;20028;-80
2021/12/20 03:17:49;;;;;;;23.75;13.55;;;3.10;99.90;;;;;;5075919;28;20081;-80
2021/12/20 03:20:14;;;;;;;19.52;11.52;;;3.00;99.90;;;;;;5075857;28;20034;-80
2021/12/20 03:22:43;;;;;;;21.70;11.85;;;3.00;99.90;;;;;;5075708;28;20391;-80
2021/12/20 03:25:09;;;;;;;19.33;11.10;;;3.10;99.90;;;;;;5075759;28;20111;-80
2021/12/20 03:27:35;;;;;;;20.90;13.23;;;3.10;99.90;;;;;;5075814;28;20372;-80
2021/12/20 03:30:03;;;;;;;22.00;12.52;;;3.10;99.90;;;;;;5075511;28;20027;-80
2021/12/20 03:32:29;;;;;;;24.00;12.32;;;3.00;99.90;;;;;;5075606;28;20062;-80
2021/12/20 03:34:55;;;;;;;17.92;10.88;;;3.00;99.90;;;;;;5075653;28;20041;-81
2021/12/20 03:37:20;;;;;;;23.30;12.80;;;3.00;99.90;;;;;;5093767;28;20028;-81
2021/12/20 03:39:46;;;;;;;19.88;11.55;;;3.00;99.90;;;;;;5075399;28;20066;-80
2021/12/20 03:42:12;;;;;;;21.15;12.23;;;3.00;99.90;;;;;;5093913;28;20031;-80
2021/12/20 03:44:43;;;;;;;22.75;12.00;;;3.00;99.90;;;;;;5075397;28;20142;-80
2021/12/20 03:47:09;;;;;;;21.25;11.88;;;3.00;99.90;;;;;;5075338;28;20468;-80
2021/12/20 03:49:35;;;;;;;21.02;12.70;;;2.90;99.90;;;;;;5075475;28;20050;-80
2021/12/20 03:52:01;;;;;;;22.77;13.43;;;2.80;99.90;;;;;;5075047;28;20020;-80
2021/12/20 03:54:26;;;;;;;22.13;13.25;;;2.70;99.90;;;;;;5093504;28;20052;-80
2021/12/20 03:56:52;;;;;;;21.15;12.30;;;2.60;99.90;;;;;;5075237;28;20085;-80
2021/12/20 03:59:18;;;;;;;22.33;13.52;;;2.60;99.90;;;;;;5093385;28;20081;-80
2021/12/20 04:01:44;;;;;;;23.23;12.73;;;2.70;99.90;;;;;;5093340;28;20021;-81
2021/12/20 04:04:10;;;;;;;23.73;13.77;;;2.90;99.90;;;;;;5075147;28;20024;-80
2021/12/20 04:06:36;;;;;;;21.63;12.27;;;2.90;99.90;;;;;;5093265;28;20024;-80
2021/12/20 04:09:03;;;;;;;18.08;11.00;;;2.90;99.90;;;;;;5093268;28;20069;-80
2021/12/20 04:11:29;;;;;;;21.90;11.68;;;3.00;99.90;;;;;;5074996;28;20028;-80
2021/12/20 04:13:56;;;;;;;23.30;13.23;;;3.00;99.90;;;;;;5075009;28;20028;-80
2021/12/20 04:16:22;;;;;;;21.05;12.20;;;2.90;99.90;;;;;;5075048;28;20024;-80
2021/12/20 04:18:48;;;;;;;21.50;12.55;;;2.80;99.90;;;;;;5074949;28;20036;-80
2021/12/20 04:21:14;;;;;;;23.60;12.50;;;2.70;99.90;;;;;;5093049;28;20030;-80
2021/12/20 04:23:40;;;;;;;21.55;12.82;;;2.70;99.90;;;;;;5074998;28;20044;-80
2021/12/20 04:26:07;;;;;;;19.65;12.27;;;2.70;99.90;;;;;;5093062;28;20027;-80
2021/12/20 04:28:33;;;;;;;21.52;12.23;;;2.60;99.90;;;;;;5093040;28;20020;-80
2021/12/20 04:30:59;;;;;;;21.88;11.65;;;2.70;99.90;;;;;;5074887;28;20030;-80
2021/12/20 04:33:25;;;;;;;17.50;10.95;;;2.70;99.90;;;;;;5092988;28;20020;-80
2021/12/20 04:35:51;;;;;;;21.88;12.45;;;2.80;99.90;;;;;;5074948;28;20028;-80
2021/12/20 04:38:17;;;;;;;21.48;12.27;;;2.90;99.90;;;;;;5074857;28;20028;-80
2021/12/20 04:40:43;;;;;;;19.02;12.48;;;2.90;99.90;;;;;;5071275;28;20040;-80
2021/12/20 04:43:09;;;;;;;19.25;11.70;;;2.90;99.90;;;;;;5071418;28;20025;-80
2021/12/20 04:45:35;;;;;;;18.75;11.43;;;2.90;99.90;;;;;;5071423;28;20074;-80
2021/12/20 04:48:02;;;;;;;26.75;13.25;;;2.90;99.90;;;;;;5072689;28;20020;-80
2021/12/20 04:50:28;;;;;;;19.73;11.70;;;2.80;99.90;;;;;;5071483;28;20107;-80
2021/12/20 04:52:55;;;;;;;20.77;12.73;;;2.80;99.90;;;;;;5071423;28;20377;-80
2021/12/20 04:55:22;;;;;;;21.85;12.48;;;2.80;99.90;;;;;;5071341;28;20028;-80
2021/12/20 04:57:48;;;;;;;18.27;10.32;;;2.90;99.90;;;;;;5071256;28;20102;-80
2021/12/20 05:00:18;;;;;;;19.98;11.90;;;2.80;99.90;;;;;;5072655;28;20071;-80
2021/12/20 05:02:44;;;;;;;20.27;12.02;;;2.80;99.90;;;;;;5071771;28;20028;-80
2021/12/20 05:05:11;;;;;;;21.85;12.57;;;2.80;99.90;;;;;;5075172;28;20016;-80
2021/12/20 05:07:38;;;;;;;20.08;12.50;;;2.60;99.90;;;;;;5075144;28;20476;-80
2021/12/20 05:10:08;;;;;;;20.42;12.18;;;2.70;99.90;;;;;;5075007;28;20392;-80
2021/12/20 05:12:34;;;;;;;21.85;11.98;;;2.70;99.90;;;;;;5075050;28;20135;-80
2021/12/20 05:14:59;;;;;;;22.23;12.77;;;2.60;99.90;;;;;;5074951;28;20520;-80
2021/12/20 05:17:26;;;;;;;22.25;12.23;;;2.60;99.90;;;;;;5076508;28;20021;-80
2021/12/20 05:19:52;;;;;;;21.33;12.55;;;2.70;99.90;;;;;;5074855;28;20036;-80
2021/12/20 05:22:17;;;;;;;25.83;15.13;;;2.90;99.90;;;;;;5074692;28;20031;-80
2021/12/20 05:24:43;;;;;;;38.25;19.63;;;2.80;99.90;;;;;;5074845;28;20029;-80
2021/12/20 05:27:09;;;;;;;30.23;15.75;;;2.60;99.90;;;;;;5076025;28;20545;-80
2021/12/20 05:29:35;;;;;;;26.23;15.13;;;2.50;99.90;;;;;;5074728;28;20564;-80
2021/12/20 05:32:04;;;;;;;28.85;15.45;;;2.50;99.90;;;;;;5074654;28;20400;-80
2021/12/20 05:34:29;;;;;;;23.38;13.88;;;2.40;99.90;;;;;;5074531;28;20036;-80
2021/12/20 05:36:55;;;;;;;25.92;13.65;;;2.40;99.90;;;;;;5074583;28;20392;-80
2021/12/20 05:39:21;;;;;;;23.23;13.23;;;2.50;99.90;;;;;;5074414;28;20044;-81
2021/12/20 05:41:47;;;;;;;22.17;12.38;;;2.60;99.90;;;;;;5074409;28;20039;-80
2021/12/20 05:44:12;;;;;;;22.92;13.38;;;2.70;99.90;;;;;;5074460;28;20387;-80
2021/12/20 05:46:38;;;;;;;21.88;12.68;;;2.80;99.90;;;;;;5074410;28;20399;-80
2021/12/20 05:49:04;;;;;;;20.60;11.85;;;2.90;99.90;;;;;;5075591;28;20020;-80
2021/12/20 05:51:30;;;;;;;20.70;12.15;;;3.00;99.90;;;;;;5074305;28;20396;-80
2021/12/20 05:53:56;;;;;;;24.50;12.55;;;3.00;99.90;;;;;;5074257;28;20112;-80
2021/12/20 05:56:21;;;;;;;26.58;13.55;;;2.90;99.90;;;;;;5074244;28;20107;-80
2021/12/20 05:58:47;;;;;;;30.38;13.27;;;2.90;99.90;;;;;;5074257;28;20115;-80
2021/12/20 06:01:13;;;;;;;21.70;12.52;;;3.00;99.90;;;;;;5075347;28;20115;-81
2021/12/20 06:03:39;;;;;;;21.70;12.32;;;2.90;99.90;;;;;;5074630;28;20063;-80
2021/12/20 06:06:04;;;;;;;19.52;11.32;;;2.80;99.90;;;;;;5074056;28;20074;-80
2021/12/20 06:08:30;;;;;;;21.13;12.27;;;2.90;99.90;;;;;;5073986;28;20503;-80
2021/12/20 06:10:56;;;;;;;19.40;11.60;;;2.80;99.90;;;;;;5075557;28;20052;-80
2021/12/20 06:13:22;;;;;;;19.67;11.02;;;2.80;99.90;;;;;;5075095;28;20023;-80
2021/12/20 06:15:47;;;;;;;20.58;12.35;;;2.80;99.90;;;;;;5073776;28;20052;-80
2021/12/20 06:18:13;;;;;;;22.63;12.57;;;2.80;99.90;;;;;;5075183;28;20024;-80
2021/12/20 06:20:42;;;;;;;25.13;13.13;;;2.80;99.90;;;;;;5073800;28;20082;-80
2021/12/20 06:23:08;;;;;;;20.33;11.68;;;2.60;99.90;;;;;;5073824;28;20123;-80
2021/12/20 06:25:34;;;;;;;20.00;11.65;;;2.60;99.90;;;;;;5073668;28;20550;-80
2021/12/20 06:27:59;;;;;;;21.60;11.48;;;2.70;99.90;;;;;;5074999;28;20021;-80
2021/12/20 06:30:25;;;;;;;20.35;11.27;;;2.90;99.90;;;;;;5073546;28;20365;-80
2021/12/20 06:32:51;;;;;;;18.05;10.88;;;2.90;99.90;;;;;;5073557;28;20029;-80
2021/12/20 06:35:16;;;;;;;20.17;12.27;;;2.80;99.90;;;;;;5073514;28;20052;-80
2021/12/20 06:37:48;;;;;;;22.30;11.98;;;2.80;99.90;;;;;;5073451;28;20056;-80
2021/12/20 06:40:14;;;;;;;18.58;11.13;;;2.90;99.90;;;;;;5073298;28;20510;-80
2021/12/20 06:42:40;;;;;;;19.05;11.10;;;2.90;99.90;;;;;;5073248;28;20056;-80
2021/12/20 06:45:07;;;;;;;20.63;11.77;;;2.90;99.90;;;;;;5073284;28;20055;-81
2021/12/20 06:47:34;;;;;;;17.45;11.02;;;2.90;99.90;;;;;;5074463;28;20027;-80
2021/12/20 06:50:01;;;;;;;16.25;9.82;;;2.90;99.90;;;;;;5074442;28;20032;-80
2021/12/20 06:52:27;;;;;;;18.08;11.02;;;3.00;99.90;;;;;;5089936;28;20035;-80
2021/12/20 06:54:53;;;;;;;18.83;9.90;;;3.00;99.90;;;;;;5073097;28;20020;-80
2021/12/20 06:57:21;;;;;;;17.88;10.43;;;3.00;99.90;;;;;;5074296;28;20040;-80
2021/12/20 06:59:48;;;;;;;17.67;10.82;;;3.00;99.90;;;;;;5074296;28;20028;-80
2021/12/20 07:02:14;;;;;;;18.73;11.05;;;3.00;99.90;;;;;;5072957;28;20028;-80
2021/12/20 07:04:39;;;;;;;16.83;10.82;;;3.00;99.90;;;;;;5072887;28;20049;-80
2021/12/20 07:07:05;;;;;;;19.42;11.18;;;3.00;99.90;;;;;;5072857;28;20544;-81
2021/12/20 07:09:31;;;;;;;19.08;11.38;;;3.00;99.90;;;;;;5072827;28;20024;-80
2021/12/20 07:11:57;;;;;;;16.38;10.82;;;2.90;99.90;;;;;;5072758;28;20515;-80
2021/12/20 07:14:27;;;;;;;17.48;10.63;;;2.80;99.90;;;;;;5072695;28;20115;-80
2021/12/20 07:16:54;;;;;;;17.55;10.55;;;2.80;99.90;;;;;;5072633;28;20056;-80
2021/12/20 07:19:19;;;;;;;18.70;10.25;;;2.70;99.90;;;;;;5072576;28;20485;-80
2021/12/20 07:21:45;;;;;;;19.73;11.35;;;2.80;99.90;;;;;;5073827;28;20035;-80
2021/12/20 07:24:11;;;;;;;20.35;11.90;;;2.80;99.90;;;;;;5072543;28;20500;-81
2021/12/20 07:26:36;;;;;;;20.13;11.10;;;2.80;99.90;;;;;;5073194;28;20025;-81
2021/12/20 07:29:04;;;;;;;19.00;10.85;;;2.80;99.90;;;;;;5072462;28;20020;-81
2021/12/20 07:31:30;;;;;;;18.15;11.63;;;2.80;99.90;;;;;;5072348;28;20024;-80
2021/12/20 07:33:56;;;;;;;18.25;10.00;;;2.90;99.90;;;;;;5072333;28;20120;-81
2021/12/20 07:36:22;;;;;;;18.42;10.65;;;3.00;99.90;;;;;;5073572;28;20480;-80
2021/12/20 07:38:49;;;;;;;18.33;11.55;;;2.90;99.90;;;;;;5073780;28;20480;-81
2021/12/20 07:41:18;;;;;;;19.13;10.45;;;2.80;99.90;;;;;;5072091;28;20119;-81
2021/12/20 07:43:44;;;;;;;20.98;11.55;;;2.80;99.90;;;;;;5072132;28;20480;-80
2021/12/20 07:46:10;;;;;;;18.17;11.45;;;2.90;99.90;;;;;;5072132;28;20078;-79
2021/12/20 07:48:36;;;;;;;21.15;12.02;;;2.90;99.90;;;;;;5072066;28;20021;-79
2021/12/20 07:51:01;;;;;;;20.42;10.80;;;2.90;99.90;;;;;;5073599;28;20050;-79
2021/12/20 07:53:27;;;;;;;16.65;10.30;;;2.80;99.90;;;;;;5073315;28;20046;-79
2021/12/20 07:55:53;;;;;;;17.08;10.50;;;3.00;99.90;;;;;;5071977;28;20420;-79
2021/12/20 07:58:20;;;;;;;27.60;13.70;;;2.90;99.90;;;;;;5072447;28;20384;-79
2021/12/20 08:00:46;;;;;;;18.98;11.32;;;2.80;99.90;;;;;;5071873;28;20465;-79
2021/12/20 08:03:12;;;;;;;16.38;10.27;;;2.80;99.90;;;;;;5071873;28;20404;-79
2021/12/20 08:05:38;;;;;;;21.20;12.10;;;2.90;99.90;;;;;;5073431;28;20034;-79
2021/12/20 08:08:05;;;;;;;16.98;9.93;;;3.00;99.90;;;;;;5073105;28;20021;-79
2021/12/20 08:10:30;;;;;;;19.40;10.88;;;2.90;99.90;;;;;;5073291;28;20035;-79
2021/12/20 08:12:56;;;;;;;18.10;9.95;;;2.90;99.90;;;;;;5071784;28;20021;-80
2021/12/20 08:15:23;;;;;;;18.00;10.05;;;3.00;99.90;;;;;;5073157;28;20056;-80
2021/12/20 08:17:50;;;;;;;16.25;9.68;;;3.10;99.90;;;;;;5071691;28;20032;-79
2021/12/20 08:20:16;;;;;;;22.33;11.60;;;3.10;99.90;;;;;;5088547;28;20138;-79
2021/12/20 08:22:41;;;;;;;16.58;10.88;;;3.10;99.90;;;;;;5071780;28;20372;-79
2021/12/20 08:25:08;;;;;;;19.80;11.55;;;3.10;99.90;;;;;;5071664;28;20392;-79
2021/12/20 08:27:34;;;;;;;15.80;9.98;;;3.10;99.90;;;;;;5071632;28;20024;-79
2021/12/20 08:30:00;;;;;;;17.25;10.68;;;3.10;99.90;;;;;;5088447;28;20025;-79
2021/12/20 08:32:26;;;;;;;18.92;9.95;;;3.10;99.90;;;;;;5071640;28;20024;-79
2021/12/20 08:34:52;;;;;;;16.20;9.82;;;3.10;99.90;;;;;;5088430;28;20052;-79
2021/12/20 08:37:18;;;;;;;14.48;9.23;;;3.20;99.90;;;;;;5072811;28;20032;-79
2021/12/20 08:39:43;;;;;;;15.40;9.27;;;3.10;99.90;;;;;;5092115;28;20053;-79
2021/12/20 08:42:09;;;;;;;14.18;9.43;;;3.10;99.90;;;;;;5092379;28;20028;-79
2021/12/20 08:44:35;;;;;;;18.85;10.80;;;3.20;99.90;;;;;;5092439;28;20503;-79
2021/12/20 08:47:02;;;;;;;22.60;11.63;;;3.20;99.90;;;;;;5075523;28;20027;-81
2021/12/20 08:49:28;;;;;;;22.75;13.18;;;3.00;99.90;;;;;;5075336;28;20468;-80
2021/12/20 08:51:55;;;;;;;21.58;12.10;;;2.90;99.90;;;;;;5076814;28;20441;-80
2021/12/20 08:54:24;;;;;;;19.80;12.75;;;2.90;99.90;;;;;;5075403;28;20035;-79
2021/12/20 08:56:50;;;;;;;21.92;12.57;;;2.90;99.90;;;;;;5075290;28;20111;-79
2021/12/20 08:59:16;;;;;;;24.42;12.18;;;2.90;99.90;;;;;;5076623;28;20038;-79
2021/12/20 09:01:42;;;;;;;20.80;12.63;;;2.90;99.90;;;;;;5075144;28;20063;-79
2021/12/20 09:04:09;;;;;;;22.23;13.20;;;3.00;99.90;;;;;;5075207;28;20063;-79
2021/12/20 09:06:39;;;;;;;23.02;12.25;;;3.00;99.90;;;;;;5076452;28;20016;-79
2021/12/20 09:09:09;;;;;;;26.48;13.40;;;3.10;99.90;;;;;;5076481;28;20491;-79
2021/12/20 09:11:35;;;;;;;26.52;15.07;;;3.10;99.90;;;;;;5075141;28;20056;-79
2021/12/20 09:14:01;;;;;;;19.10;11.10;;;3.10;99.90;;;;;;5075025;28;20078;-80
2021/12/20 09:16:27;;;;;;;17.70;10.95;;;3.20;99.90;;;;;;5074919;28;20400;-79
2021/12/20 09:18:53;;;;;;;19.60;11.90;;;3.50;99.90;;;;;;5074896;28;20120;-79
2021/12/20 09:21:19;;;;;;;17.77;9.93;;;3.60;99.90;;;;;;5076098;28;20489;-79
2021/12/20 09:23:45;;;;;;;22.58;13.00;;;3.60;99.90;;;;;;5076388;28;20028;-79
2021/12/20 09:26:11;;;;;;;21.73;12.73;;;3.50;99.90;;;;;;5074754;28;20032;-79
2021/12/20 09:28:37;;;;;;;21.08;12.52;;;3.40;99.90;;;;;;5076064;28;20020;-79
2021/12/20 09:31:05;;;;;;;29.02;17.50;;;3.40;99.90;;;;;;5074649;28;20389;-79
2021/12/20 09:33:31;;;;;;;32.70;21.65;;;3.40;99.90;;;;;;5074627;28;20036;-79
2021/12/20 09:35:56;;;;;;;28.73;16.58;;;3.40;99.90;;;;;;5074582;28;20020;-79
2021/12/20 09:38:23;;;;;;;21.27;13.43;;;3.50;99.90;;;;;;5074523;28;20020;-80
2021/12/20 09:43:44;;;;;;;20.30;12.13;;;3.60;99.90;;;;;;5075843;28;20017;-79
2021/12/20 09:46:10;;;;;;;22.60;12.63;;;3.60;99.90;;;;;;5057794;28;20456;-79
2021/12/20 09:48:36;;;;;;;20.10;12.48;;;3.70;99.90;;;;;;5073782;28;20016;-79
2021/12/20 09:51:04;;;;;;;23.13;12.55;;;3.70;99.90;;;;;;5074316;28;20028;-79
2021/12/20 09:53:30;;;;;;;24.27;13.90;;;3.80;99.90;;;;;;5075776;28;20068;-82
2021/12/20 09:55:58;;;;;;;23.42;13.00;;;3.90;99.90;;;;;;5074207;28;20021;-82
2021/12/20 09:58:26;;;;;;;22.20;13.10;;;3.90;99.90;;;;;;5075479;28;20021;-82
2021/12/20 10:00:53;;;;;;;27.80;12.85;;;3.90;99.90;;;;;;5075380;28;20017;-83
2021/12/20 10:03:24;;;;;;;29.52;13.88;;;3.90;99.90;;;;;;5074307;28;20028;-83
2021/12/20 10:05:55;;;;;;;21.35;13.00;;;3.90;99.90;;;;;;5074082;28;20108;-83
2021/12/20 10:08:30;;;;;;;32.63;14.18;;;3.90;99.90;;;;;;5074047;28;20020;-82
2021/12/20 10:10:56;;;;;;;25.65;14.90;;;3.90;99.90;;;;;;5075338;28;20495;-83
2021/12/20 10:13:38;;;;;;;24.85;14.85;;;3.90;99.90;;;;;;5073884;28;20017;-83
2021/12/20 10:16:22;;;;;;;26.85;13.73;;;4.00;99.90;;;;;;5075242;28;20379;-83
2021/12/20 10:18:49;;;;;;;21.40;11.75;;;3.90;99.90;;;;;;5073890;28;20021;-82
2021/12/20 10:21:16;;;;;;;47.47;22.27;;;4.00;99.90;;;;;;5073699;28;20028;-83
2021/12/20 10:23:48;;;;;;;24.95;14.15;;;4.20;99.90;;;;;;5073762;28;20047;-83
2021/12/20 10:26:20;;;;;;;31.92;16.45;;;4.10;99.90;;;;;;5075318;28;20020;-83
2021/12/20 10:28:48;;;;;;;27.30;15.18;;;4.30;99.90;;;;;;5073849;28;20025;-83
2021/12/20 10:31:19;;;;;;;29.00;14.40;;;4.40;99.90;;;;;;5073633;28;20033;-83
2021/12/20 10:34:01;;;;;;;27.35;15.73;;;4.50;99.90;;;;;;5073627;28;20543;-83
2021/12/20 10:36:27;;;;;;;27.80;14.85;;;4.40;99.90;;;;;;5073424;28;20025;-83
2021/12/20 10:38:57;;;;;;;33.00;19.13;;;4.30;99.90;;;;;;5073709;28;20085;-83
2021/12/20 10:41:37;;;;;;;29.00;16.15;;;4.30;99.90;;;;;;5076639;28;20392;-83
2021/12/20 10:44:14;;;;;;;27.33;15.05;;;4.40;99.90;;;;;;5095151;28;20032;-83
2021/12/20 10:46:53;;;;;;;26.77;15.32;;;4.50;99.90;;;;;;5095061;28;20133;-83
2021/12/20 10:49:25;;;;;;;35.03;15.98;;;4.50;99.90;;;;;;5076547;28;20032;-83
2021/12/20 10:51:52;;;;;;;28.40;14.98;;;4.50;99.90;;;;;;5076523;28;20093;-83
2021/12/20 10:54:22;;;;;;;29.98;15.55;;;4.50;99.90;;;;;;5076457;28;20430;-83
2021/12/20 10:56:58;;;;;;;28.52;14.55;;;4.50;99.90;;;;;;5076384;28;20388;-83
2021/12/20 10:59:28;;;;;;;25.77;13.23;;;4.60;99.90;;;;;;5076466;28;20534;-83
2021/12/20 11:04:27;;;;;;;32.58;16.42;;;4.60;99.90;;;;;;5094529;28;20024;-83
2021/12/20 11:09:42;;;;;;;19.90;11.80;;;4.50;99.90;;;;;;5094341;28;20019;-83
2021/12/20 11:12:12;;;;;;;29.20;14.20;;;4.50;99.90;;;;;;5094612;28;20047;-83
2021/12/20 11:15:00;;;;;;;22.23;12.50;;;4.50;99.90;;;;;;5075973;28;20483;-83
2021/12/20 11:17:28;;;;;;;25.63;12.70;;;4.40;99.90;;;;;;5076099;28;20024;-82
2021/12/20 11:19:56;;;;;;;24.95;13.18;;;4.30;99.90;;;;;;5094110;28;20020;-83
2021/12/20 11:22:27;;;;;;;24.85;12.20;;;4.30;99.90;;;;;;5075849;28;20097;-83
2021/12/20 11:25:00;;;;;;;30.13;14.70;;;4.30;99.90;;;;;;5094393;28;20016;-83
2021/12/20 11:27:32;;;;;;;22.43;12.70;;;4.40;99.90;;;;;;5075931;28;20028;-83
2021/12/20 11:30:15;;;;;;;27.42;13.05;;;4.30;99.90;;;;;;5075868;28;20277;-84
2021/12/20 11:32:42;;;;;;;22.30;11.40;;;4.40;99.90;;;;;;5075701;28;20031;-83
2021/12/20 11:35:09;;;;;;;25.20;13.38;;;4.30;99.90;;;;;;5075681;28;20027;-83
2021/12/20 11:37:35;;;;;;;25.63;13.02;;;4.30;99.90;;;;;;5075543;28;20604;-83
2021/12/20 11:40:05;;;;;;;27.08;13.63;;;4.20;99.90;;;;;;5075308;28;20482;-84
2021/12/20 11:42:31;;;;;;;26.38;13.70;;;4.10;99.90;;;;;;5075471;28;20085;-83
2021/12/20 11:45:02;;;;;;;33.85;20.02;;;4.10;99.90;;;;;;5093680;28;20422;-83
2021/12/20 11:47:46;;;;;;;27.73;13.75;;;4.10;99.90;;;;;;5075402;28;20020;-83
2021/12/20 11:50:18;;;;;;;30.65;14.57;;;4.20;99.90;;;;;;5075439;28;20114;-83
2021/12/20 11:52:46;;;;;;;31.92;14.32;;;4.20;99.90;;;;;;5075422;28;20032;-83
2021/12/20 11:55:23;;;;;;;32.13;15.25;;;4.40;99.90;;;;;;5093851;28;20410;-82
2021/12/20 11:57:51;;;;;;;24.02;13.75;;;4.60;99.90;;;;;;5093758;28;20032;-82
2021/12/20 12:00:20;;;;;;;25.70;13.18;;;5.10;99.90;;;;;;5075203;28;20028;-83
2021/12/20 12:02:48;;;;;;;27.50;13.98;;;5.40;99.90;;;;;;5093253;28;20028;-82
2021/12/20 12:05:26;;;;;;;32.10;16.77;;;5.30;99.90;;;;;;5075234;28;20027;-84
2021/12/20 12:07:52;;;;;;;23.42;14.35;;;5.20;99.90;;;;;;5093287;28;20072;-82
2021/12/20 12:10:27;;;;;;;28.27;13.07;;;5.40;99.90;;;;;;5075191;28;20107;-82
2021/12/20 12:13:00;;;;;;;26.30;14.27;;;5.50;99.90;;;;;;5074986;28;20031;-83
2021/12/20 12:15:43;;;;;;;24.33;10.55;;;5.60;99.90;;;;;;5075246;28;20073;-83
2021/12/20 12:18:10;;;;;;;21.85;12.07;;;5.50;99.90;;;;;;5075210;28;20089;-83
2021/12/20 12:20:50;;;;;;;20.13;11.60;;;5.40;99.90;;;;;;5074965;28;20028;-83
2021/12/20 12:23:24;;;;;;;21.23;12.10;;;5.10;99.90;;;;;;5093157;28;20421;-83
2021/12/20 12:25:55;;;;;;;24.73;13.15;;;4.90;99.90;;;;;;5075130;28;20404;-82
2021/12/20 12:28:51;;;;;;;25.00;12.80;;;4.70;99.90;;;;;;5075031;28;20024;-84
2021/12/20 12:31:17;;;;;;;28.58;12.80;;;4.50;99.90;;;;;;5093105;28;20104;-82
2021/12/20 12:33:43;;;;;;;28.15;13.73;;;4.40;99.90;;;;;;5075072;28;20035;-79
2021/12/20 12:36:31;;;;;;;26.70;13.70;;;4.30;99.90;;;;;;5093027;28;20032;-80
2021/12/20 12:39:05;;;;;;;25.70;12.48;;;4.20;99.90;;;;;;5074789;28;20046;-80
2021/12/20 12:41:43;;;;;;;20.85;12.40;;;4.20;99.90;;;;;;5092933;28;20020;-81
2021/12/20 12:44:27;;;;;;;23.85;12.27;;;4.20;99.90;;;;;;5074753;28;20040;-80
2021/12/20 12:46:55;;;;;;;25.38;12.43;;;4.20;99.90;;;;;;5074796;28;20020;-80
2021/12/20 12:49:21;;;;;;;22.95;12.40;;;4.20;99.90;;;;;;5092831;28;20028;-80
2021/12/20 12:51:52;;;;;;;30.23;13.18;;;4.20;99.90;;;;;;5074669;28;20549;-80
2021/12/20 12:54:38;;;;;;;24.48;12.77;;;4.10;99.90;;;;;;5074663;28;20020;-80
2021/12/20 12:57:10;;;;;;;26.48;13.27;;;4.10;99.90;;;;;;5092808;28;20051;-81
2021/12/20 12:59:57;;;;;;;31.88;14.68;;;4.10;99.90;;;;;;5092723;28;20043;-80